sensor_id;sensor_type;location;lat;lon;timestamp;P1;durP1;ratioP1;P2;durP2;ratioP2
7398;SDS011;3740;50.700;7.184;2023-11-22T00:01:36;5.50;;;5.00;;
7398;SDS011;3740;50.700;7.184;2023-11-22T00:04:02;5.80;;;5.20;;
7398;SDS011;3740;50.700;7.184;2023-11-22T00:06:28;5.67;;;5.17;;
7398;SDS011;3740;50.700;7.184;2023-11-22T00:08:55;5.63;;;5.13;;
7398;SDS011;3740;50.700;7.184;2023-11-22T00:11:20;6.33;;;5.73;;
7398;SDS011;3740;50.700;7.184;2023-11-22T00:13:46;6.47;;;5.83;;
7398;SDS011;3740;50.700;7.184;2023-11-22T00:16:11;6.73;;;6.13;;
7398;SDS011;3740;50.700;7.184;2023-11-22T00:18:37;6.67;;;6.00;;
7398;SDS011;3740;50.700;7.184;2023-11-22T00:21:03;6.73;;;5.60;;
7398;SDS011;3740;50.700;7.184;2023-11-22T00:23:29;6.57;;;5.97;;
7398;SDS011;3740;50.700;7.184;2023-11-22T00:25:55;6.30;;;5.70;;
7398;SDS011;3740;50.700;7.184;2023-11-22T00:28:22;6.23;;;5.73;;
7398;SDS011;3740;50.700;7.184;2023-11-22T00:30:48;6.10;;;5.50;;
7398;SDS011;3740;50.700;7.184;2023-11-22T00:33:13;6.03;;;5.53;;
7398;SDS011;3740;50.700;7.184;2023-11-22T00:35:39;6.30;;;5.70;;
7398;SDS011;3740;50.700;7.184;2023-11-22T00:38:05;6.30;;;5.70;;
7398;SDS011;3740;50.700;7.184;2023-11-22T00:40:31;6.23;;;5.73;;
7398;SDS011;3740;50.700;7.184;2023-11-22T00:42:56;5.77;;;5.27;;
7398;SDS011;3740;50.700;7.184;2023-11-22T00:45:23;7.07;;;6.17;;
7398;SDS011;3740;50.700;7.184;2023-11-22T00:47:48;6.90;;;6.30;;
7398;SDS011;3740;50.700;7.184;2023-11-22T00:50:15;6.80;;;6.20;;
7398;SDS011;3740;50.700;7.184;2023-11-22T00:52:44;7.00;;;6.37;;
7398;SDS011;3740;50.700;7.184;2023-11-22T00:55:11;7.40;;;6.67;;
7398;SDS011;3740;50.700;7.184;2023-11-22T00:57:36;8.20;;;6.57;;
7398;SDS011;3740;50.700;7.184;2023-11-22T01:00:02;6.90;;;6.30;;
7398;SDS011;3740;50.700;7.184;2023-11-22T01:02:29;7.37;;;6.67;;
7398;SDS011;3740;50.700;7.184;2023-11-22T01:04:55;6.93;;;6.33;;
7398;SDS011;3740;50.700;7.184;2023-11-22T01:07:20;6.30;;;5.80;;
7398;SDS011;3740;50.700;7.184;2023-11-22T01:09:46;6.87;;;6.27;;
7398;SDS011;3740;50.700;7.184;2023-11-22T01:12:11;7.37;;;6.67;;
7398;SDS011;3740;50.700;7.184;2023-11-22T01:14:38;7.07;;;6.47;;
7398;SDS011;3740;50.700;7.184;2023-11-22T01:17:04;8.23;;;6.20;;
7398;SDS011;3740;50.700;7.184;2023-11-22T01:19:30;7.03;;;6.33;;
7398;SDS011;3740;50.700;7.184;2023-11-22T01:21:56;6.40;;;5.80;;
7398;SDS011;3740;50.700;7.184;2023-11-22T01:24:21;7.03;;;6.20;;
7398;SDS011;3740;50.700;7.184;2023-11-22T01:26:47;6.40;;;5.80;;
7398;SDS011;3740;50.700;7.184;2023-11-22T01:29:12;6.60;;;5.80;;
7398;SDS011;3740;50.700;7.184;2023-11-22T01:31:38;6.70;;;6.10;;
7398;SDS011;3740;50.700;7.184;2023-11-22T01:34:04;6.87;;;6.20;;
7398;SDS011;3740;50.700;7.184;2023-11-22T01:36:30;6.63;;;6.03;;
7398;SDS011;3740;50.700;7.184;2023-11-22T01:38:56;6.43;;;5.87;;
7398;SDS011;3740;50.700;7.184;2023-11-22T01:41:22;6.50;;;5.87;;
7398;SDS011;3740;50.700;7.184;2023-11-22T01:43:47;6.87;;;6.17;;
7398;SDS011;3740;50.700;7.184;2023-11-22T01:46:21;6.50;;;5.90;;
7398;SDS011;3740;50.700;7.184;2023-11-22T01:48:48;7.00;;;6.40;;
7398;SDS011;3740;50.700;7.184;2023-11-22T01:51:15;6.80;;;6.20;;
7398;SDS011;3740;50.700;7.184;2023-11-22T01:53:40;7.13;;;6.50;;
7398;SDS011;3740;50.700;7.184;2023-11-22T01:56:06;7.20;;;6.50;;
7398;SDS011;3740;50.700;7.184;2023-11-22T01:58:34;7.17;;;6.47;;
7398;SDS011;3740;50.700;7.184;2023-11-22T02:01:00;7.53;;;6.90;;
7398;SDS011;3740;50.700;7.184;2023-11-22T02:03:27;7.30;;;6.60;;
7398;SDS011;3740;50.700;7.184;2023-11-22T02:05:52;7.30;;;6.70;;
7398;SDS011;3740;50.700;7.184;2023-11-22T02:08:19;7.47;;;6.77;;
7398;SDS011;3740;50.700;7.184;2023-11-22T02:10:44;7.30;;;6.60;;
7398;SDS011;3740;50.700;7.184;2023-11-22T02:13:14;7.90;;;7.20;;
7398;SDS011;3740;50.700;7.184;2023-11-22T02:15:39;8.10;;;7.30;;
7398;SDS011;3740;50.700;7.184;2023-11-22T02:18:05;8.00;;;7.30;;
7398;SDS011;3740;50.700;7.184;2023-11-22T02:20:33;7.90;;;7.10;;
7398;SDS011;3740;50.700;7.184;2023-11-22T02:23:11;7.87;;;7.20;;
7398;SDS011;3740;50.700;7.184;2023-11-22T02:25:37;8.77;;;7.97;;
7398;SDS011;3740;50.700;7.184;2023-11-22T02:28:03;8.70;;;7.90;;
7398;SDS011;3740;50.700;7.184;2023-11-22T02:30:28;8.30;;;7.50;;
7398;SDS011;3740;50.700;7.184;2023-11-22T02:32:54;8.23;;;7.40;;
7398;SDS011;3740;50.700;7.184;2023-11-22T02:35:20;7.73;;;7.03;;
7398;SDS011;3740;50.700;7.184;2023-11-22T02:37:45;7.90;;;7.30;;
7398;SDS011;3740;50.700;7.184;2023-11-22T02:42:43;8.10;;;7.40;;
7398;SDS011;3740;50.700;7.184;2023-11-22T02:45:10;8.50;;;7.70;;
7398;SDS011;3740;50.700;7.184;2023-11-22T02:47:36;8.03;;;7.23;;
7398;SDS011;3740;50.700;7.184;2023-11-22T02:50:02;8.23;;;7.43;;
7398;SDS011;3740;50.700;7.184;2023-11-22T02:52:30;8.23;;;7.53;;
7398;SDS011;3740;50.700;7.184;2023-11-22T02:54:56;9.27;;;8.43;;
7398;SDS011;3740;50.700;7.184;2023-11-22T02:57:21;8.03;;;7.23;;
7398;SDS011;3740;50.700;7.184;2023-11-22T02:59:47;8.50;;;7.70;;
7398;SDS011;3740;50.700;7.184;2023-11-22T03:02:12;8.30;;;7.50;;
7398;SDS011;3740;50.700;7.184;2023-11-22T03:04:39;7.87;;;7.17;;
7398;SDS011;3740;50.700;7.184;2023-11-22T03:07:05;8.93;;;8.03;;
7398;SDS011;3740;50.700;7.184;2023-11-22T03:09:31;8.63;;;7.73;;
7398;SDS011;3740;50.700;7.184;2023-11-22T03:11:57;8.43;;;7.63;;
7398;SDS011;3740;50.700;7.184;2023-11-22T03:14:22;8.67;;;7.80;;
7398;SDS011;3740;50.700;7.184;2023-11-22T03:16:48;8.10;;;7.40;;
7398;SDS011;3740;50.700;7.184;2023-11-22T03:19:14;9.03;;;7.80;;
7398;SDS011;3740;50.700;7.184;2023-11-22T03:21:40;8.70;;;7.90;;
7398;SDS011;3740;50.700;7.184;2023-11-22T03:24:07;9.43;;;8.37;;
7398;SDS011;3740;50.700;7.184;2023-11-22T03:26:33;8.47;;;7.77;;
7398;SDS011;3740;50.700;7.184;2023-11-22T03:29:00;8.60;;;7.80;;
7398;SDS011;3740;50.700;7.184;2023-11-22T03:31:26;8.20;;;7.50;;
7398;SDS011;3740;50.700;7.184;2023-11-22T03:33:52;9.17;;;8.20;;
7398;SDS011;3740;50.700;7.184;2023-11-22T03:36:19;8.93;;;8.13;;
7398;SDS011;3740;50.700;7.184;2023-11-22T03:38:45;8.87;;;8.00;;
7398;SDS011;3740;50.700;7.184;2023-11-22T03:41:11;8.87;;;8.07;;
7398;SDS011;3740;50.700;7.184;2023-11-22T03:43:37;8.73;;;8.03;;
7398;SDS011;3740;50.700;7.184;2023-11-22T03:46:03;9.63;;;8.83;;
7398;SDS011;3740;50.700;7.184;2023-11-22T03:48:28;9.00;;;7.50;;
7398;SDS011;3740;50.700;7.184;2023-11-22T03:50:54;8.40;;;7.70;;
7398;SDS011;3740;50.700;7.184;2023-11-22T03:53:19;8.70;;;8.00;;
7398;SDS011;3740;50.700;7.184;2023-11-22T03:55:47;8.60;;;7.80;;
7398;SDS011;3740;50.700;7.184;2023-11-22T03:58:14;8.23;;;7.43;;
7398;SDS011;3740;50.700;7.184;2023-11-22T04:00:40;9.03;;;8.03;;
7398;SDS011;3740;50.700;7.184;2023-11-22T04:03:05;8.30;;;7.60;;
7398;SDS011;3740;50.700;7.184;2023-11-22T04:05:31;8.37;;;7.67;;
7398;SDS011;3740;50.700;7.184;2023-11-22T04:07:57;8.60;;;7.90;;
7398;SDS011;3740;50.700;7.184;2023-11-22T04:10:22;9.43;;;8.53;;
7398;SDS011;3740;50.700;7.184;2023-11-22T04:12:48;8.30;;;7.60;;
7398;SDS011;3740;50.700;7.184;2023-11-22T04:15:14;8.30;;;7.60;;
7398;SDS011;3740;50.700;7.184;2023-11-22T04:17:40;8.70;;;7.97;;
7398;SDS011;3740;50.700;7.184;2023-11-22T04:20:06;8.37;;;7.67;;
7398;SDS011;3740;50.700;7.184;2023-11-22T04:22:34;8.33;;;7.63;;
7398;SDS011;3740;50.700;7.184;2023-11-22T04:25:00;8.50;;;7.70;;
7398;SDS011;3740;50.700;7.184;2023-11-22T04:27:27;8.70;;;8.00;;
7398;SDS011;3740;50.700;7.184;2023-11-22T04:29:52;8.67;;;7.97;;
7398;SDS011;3740;50.700;7.184;2023-11-22T04:32:18;8.27;;;7.57;;
7398;SDS011;3740;50.700;7.184;2023-11-22T04:34:44;8.63;;;7.83;;
7398;SDS011;3740;50.700;7.184;2023-11-22T04:37:09;9.03;;;8.23;;
7398;SDS011;3740;50.700;7.184;2023-11-22T04:39:35;8.87;;;8.07;;
7398;SDS011;3740;50.700;7.184;2023-11-22T04:42:00;8.83;;;7.73;;
7398;SDS011;3740;50.700;7.184;2023-11-22T04:44:26;8.80;;;8.10;;
7398;SDS011;3740;50.700;7.184;2023-11-22T04:46:51;9.13;;;8.23;;
7398;SDS011;3740;50.700;7.184;2023-11-22T04:49:17;8.97;;;8.17;;
7398;SDS011;3740;50.700;7.184;2023-11-22T04:51:43;8.23;;;7.53;;
7398;SDS011;3740;50.700;7.184;2023-11-22T04:54:10;8.43;;;7.67;;
7398;SDS011;3740;50.700;7.184;2023-11-22T04:56:36;8.20;;;7.50;;
7398;SDS011;3740;50.700;7.184;2023-11-22T04:59:02;8.47;;;7.67;;
7398;SDS011;3740;50.700;7.184;2023-11-22T05:01:32;8.23;;;7.43;;
7398;SDS011;3740;50.700;7.184;2023-11-22T05:03:58;8.57;;;7.87;;
7398;SDS011;3740;50.700;7.184;2023-11-22T05:06:24;8.17;;;7.37;;
7398;SDS011;3740;50.700;7.184;2023-11-22T05:08:51;7.93;;;7.13;;
7398;SDS011;3740;50.700;7.184;2023-11-22T05:11:17;8.40;;;7.57;;
7398;SDS011;3740;50.700;7.184;2023-11-22T05:13:42;9.57;;;8.33;;
7398;SDS011;3740;50.700;7.184;2023-11-22T05:16:08;8.80;;;8.07;;
7398;SDS011;3740;50.700;7.184;2023-11-22T05:18:34;9.43;;;8.63;;
7398;SDS011;3740;50.700;7.184;2023-11-22T05:21:00;9.47;;;8.53;;
7398;SDS011;3740;50.700;7.184;2023-11-22T05:23:29;9.87;;;8.87;;
7398;SDS011;3740;50.700;7.184;2023-11-22T05:25:54;9.47;;;8.67;;
7398;SDS011;3740;50.700;7.184;2023-11-22T05:28:21;8.93;;;8.03;;
7398;SDS011;3740;50.700;7.184;2023-11-22T05:30:47;8.03;;;7.33;;
7398;SDS011;3740;50.700;7.184;2023-11-22T05:33:13;8.90;;;6.97;;
7398;SDS011;3740;50.700;7.184;2023-11-22T05:35:38;7.03;;;6.40;;
7398;SDS011;3740;50.700;7.184;2023-11-22T05:38:05;6.20;;;5.60;;
7398;SDS011;3740;50.700;7.184;2023-11-22T05:40:32;5.50;;;5.00;;
7398;SDS011;3740;50.700;7.184;2023-11-22T05:42:58;5.27;;;4.87;;
7398;SDS011;3740;50.700;7.184;2023-11-22T05:45:23;4.60;;;4.20;;
7398;SDS011;3740;50.700;7.184;2023-11-22T05:47:50;5.73;;;4.90;;
7398;SDS011;3740;50.700;7.184;2023-11-22T05:50:16;4.87;;;4.47;;
7398;SDS011;3740;50.700;7.184;2023-11-22T05:52:41;5.17;;;4.43;;
7398;SDS011;3740;50.700;7.184;2023-11-22T05:55:09;4.63;;;4.00;;
7398;SDS011;3740;50.700;7.184;2023-11-22T05:57:35;4.63;;;3.97;;
7398;SDS011;3740;50.700;7.184;2023-11-22T06:00:00;4.67;;;4.27;;
7398;SDS011;3740;50.700;7.184;2023-11-22T06:02:27;4.23;;;3.80;;
7398;SDS011;3740;50.700;7.184;2023-11-22T06:04:53;4.00;;;3.70;;
7398;SDS011;3740;50.700;7.184;2023-11-22T06:07:18;4.10;;;3.70;;
7398;SDS011;3740;50.700;7.184;2023-11-22T06:09:44;4.13;;;3.73;;
7398;SDS011;3740;50.700;7.184;2023-11-22T06:12:09;4.47;;;4.07;;
7398;SDS011;3740;50.700;7.184;2023-11-22T06:14:35;4.40;;;4.00;;
7398;SDS011;3740;50.700;7.184;2023-11-22T06:17:01;4.60;;;3.77;;
7398;SDS011;3740;50.700;7.184;2023-11-22T06:19:28;3.83;;;3.53;;
7398;SDS011;3740;50.700;7.184;2023-11-22T06:21:53;4.30;;;3.90;;
7398;SDS011;3740;50.700;7.184;2023-11-22T06:24:19;4.33;;;3.93;;
7398;SDS011;3740;50.700;7.184;2023-11-22T06:26:45;4.97;;;3.83;;
7398;SDS011;3740;50.700;7.184;2023-11-22T06:29:14;4.20;;;3.90;;
7398;SDS011;3740;50.700;7.184;2023-11-22T06:31:40;5.27;;;4.77;;
7398;SDS011;3740;50.700;7.184;2023-11-22T06:34:05;7.00;;;6.40;;
7398;SDS011;3740;50.700;7.184;2023-11-22T06:36:31;7.67;;;6.13;;
7398;SDS011;3740;50.700;7.184;2023-11-22T06:38:57;5.70;;;5.20;;
7398;SDS011;3740;50.700;7.184;2023-11-22T06:41:23;5.60;;;5.10;;
7398;SDS011;3740;50.700;7.184;2023-11-22T06:43:49;5.40;;;4.90;;
7398;SDS011;3740;50.700;7.184;2023-11-22T06:46:14;5.93;;;5.33;;
7398;SDS011;3740;50.700;7.184;2023-11-22T06:48:41;9.37;;;6.93;;
7398;SDS011;3740;50.700;7.184;2023-11-22T06:51:08;7.27;;;6.60;;
7398;SDS011;3740;50.700;7.184;2023-11-22T06:53:34;10.37;;;9.37;;
7398;SDS011;3740;50.700;7.184;2023-11-22T06:56:00;10.77;;;9.73;;
7398;SDS011;3740;50.700;7.184;2023-11-22T06:58:26;9.10;;;8.20;;
7398;SDS011;3740;50.700;7.184;2023-11-22T07:00:52;8.13;;;7.33;;
7398;SDS011;3740;50.700;7.184;2023-11-22T07:03:17;8.27;;;7.47;;
7398;SDS011;3740;50.700;7.184;2023-11-22T07:05:43;8.60;;;7.70;;
7398;SDS011;3740;50.700;7.184;2023-11-22T07:08:09;9.93;;;9.03;;
7398;SDS011;3740;50.700;7.184;2023-11-22T07:10:36;9.37;;;8.37;;
7398;SDS011;3740;50.700;7.184;2023-11-22T07:13:02;8.83;;;7.93;;
7398;SDS011;3740;50.700;7.184;2023-11-22T07:15:27;8.47;;;7.27;;
7398;SDS011;3740;50.700;7.184;2023-11-22T07:17:53;7.17;;;6.47;;
7398;SDS011;3740;50.700;7.184;2023-11-22T07:20:19;5.97;;;5.37;;
7398;SDS011;3740;50.700;7.184;2023-11-22T07:22:45;6.00;;;5.40;;
7398;SDS011;3740;50.700;7.184;2023-11-22T07:25:11;6.63;;;5.63;;
7398;SDS011;3740;50.700;7.184;2023-11-22T07:27:46;7.07;;;5.70;;
7398;SDS011;3740;50.700;7.184;2023-11-22T07:30:15;5.47;;;5.07;;
7398;SDS011;3740;50.700;7.184;2023-11-22T07:32:41;5.40;;;4.90;;
7398;SDS011;3740;50.700;7.184;2023-11-22T07:35:07;4.90;;;4.50;;
7398;SDS011;3740;50.700;7.184;2023-11-22T07:37:34;5.40;;;4.90;;
7398;SDS011;3740;50.700;7.184;2023-11-22T07:40:01;6.03;;;5.47;;
7398;SDS011;3740;50.700;7.184;2023-11-22T07:42:28;6.00;;;5.50;;
7398;SDS011;3740;50.700;7.184;2023-11-22T07:44:54;6.00;;;5.50;;
7398;SDS011;3740;50.700;7.184;2023-11-22T07:47:21;5.80;;;5.30;;
7398;SDS011;3740;50.700;7.184;2023-11-22T07:49:47;7.20;;;6.50;;
7398;SDS011;3740;50.700;7.184;2023-11-22T07:52:13;6.90;;;6.30;;
7398;SDS011;3740;50.700;7.184;2023-11-22T07:54:39;6.73;;;6.03;;
7398;SDS011;3740;50.700;7.184;2023-11-22T07:57:05;7.10;;;6.40;;
7398;SDS011;3740;50.700;7.184;2023-11-22T07:59:32;6.90;;;6.20;;
7398;SDS011;3740;50.700;7.184;2023-11-22T08:01:58;7.00;;;6.33;;
7398;SDS011;3740;50.700;7.184;2023-11-22T08:04:26;5.93;;;5.43;;
7398;SDS011;3740;50.700;7.184;2023-11-22T08:06:53;6.10;;;5.60;;
7398;SDS011;3740;50.700;7.184;2023-11-22T08:09:22;6.00;;;5.50;;
7398;SDS011;3740;50.700;7.184;2023-11-22T08:11:47;7.13;;;6.43;;
7398;SDS011;3740;50.700;7.184;2023-11-22T08:14:13;7.87;;;7.13;;
7398;SDS011;3740;50.700;7.184;2023-11-22T08:16:40;6.80;;;6.20;;
7398;SDS011;3740;50.700;7.184;2023-11-22T08:19:07;6.40;;;5.80;;
7398;SDS011;3740;50.700;7.184;2023-11-22T08:21:34;6.30;;;5.73;;
7398;SDS011;3740;50.700;7.184;2023-11-22T08:24:00;6.83;;;6.13;;
7398;SDS011;3740;50.700;7.184;2023-11-22T08:26:25;6.60;;;5.97;;
7398;SDS011;3740;50.700;7.184;2023-11-22T08:28:51;6.30;;;5.70;;
7398;SDS011;3740;50.700;7.184;2023-11-22T08:31:17;5.43;;;5.03;;
7398;SDS011;3740;50.700;7.184;2023-11-22T08:33:42;5.50;;;5.00;;
7398;SDS011;3740;50.700;7.184;2023-11-22T08:36:08;5.50;;;5.00;;
7398;SDS011;3740;50.700;7.184;2023-11-22T08:38:35;5.43;;;4.83;;
7398;SDS011;3740;50.700;7.184;2023-11-22T08:41:01;7.83;;;5.63;;
7398;SDS011;3740;50.700;7.184;2023-11-22T08:43:28;5.83;;;5.23;;
7398;SDS011;3740;50.700;7.184;2023-11-22T08:45:53;7.13;;;6.30;;
7398;SDS011;3740;50.700;7.184;2023-11-22T08:48:19;7.03;;;6.27;;
7398;SDS011;3740;50.700;7.184;2023-11-22T08:50:45;7.80;;;6.20;;
7398;SDS011;3740;50.700;7.184;2023-11-22T08:53:12;5.60;;;5.10;;
7398;SDS011;3740;50.700;7.184;2023-11-22T08:55:38;8.63;;;6.00;;
7398;SDS011;3740;50.700;7.184;2023-11-22T08:58:03;5.77;;;5.10;;
7398;SDS011;3740;50.700;7.184;2023-11-22T09:00:30;5.20;;;4.70;;
7398;SDS011;3740;50.700;7.184;2023-11-22T09:02:57;5.10;;;4.33;;
7398;SDS011;3740;50.700;7.184;2023-11-22T09:05:23;4.47;;;4.07;;
7398;SDS011;3740;50.700;7.184;2023-11-22T09:07:48;8.63;;;7.73;;
7398;SDS011;3740;50.700;7.184;2023-11-22T09:10:16;8.00;;;7.20;;
7398;SDS011;3740;50.700;7.184;2023-11-22T09:12:43;4.90;;;4.43;;
7398;SDS011;3740;50.700;7.184;2023-11-22T09:15:10;6.47;;;5.60;;
7398;SDS011;3740;50.700;7.184;2023-11-22T09:17:38;8.43;;;5.60;;
7398;SDS011;3740;50.700;7.184;2023-11-22T09:20:08;10.07;;;7.97;;
7398;SDS011;3740;50.700;7.184;2023-11-22T09:22:36;9.90;;;6.73;;
7398;SDS011;3740;50.700;7.184;2023-11-22T09:25:09;6.43;;;4.33;;
7398;SDS011;3740;50.700;7.184;2023-11-22T09:27:36;4.87;;;4.37;;
7398;SDS011;3740;50.700;7.184;2023-11-22T09:30:03;4.70;;;4.17;;
7398;SDS011;3740;50.700;7.184;2023-11-22T09:32:29;4.30;;;3.90;;
7398;SDS011;3740;50.700;7.184;2023-11-22T09:34:55;6.57;;;4.13;;
7398;SDS011;3740;50.700;7.184;2023-11-22T09:37:23;5.37;;;4.87;;
7398;SDS011;3740;50.700;7.184;2023-11-22T09:39:50;10.33;;;9.30;;
7398;SDS011;3740;50.700;7.184;2023-11-22T09:42:16;7.73;;;6.63;;
7398;SDS011;3740;50.700;7.184;2023-11-22T09:44:41;4.07;;;3.70;;
7398;SDS011;3740;50.700;7.184;2023-11-22T09:47:08;3.87;;;3.20;;
7398;SDS011;3740;50.700;7.184;2023-11-22T09:49:34;4.83;;;2.97;;
7398;SDS011;3740;50.700;7.184;2023-11-22T09:52:05;4.72;;;2.70;;
7398;SDS011;3740;50.700;7.184;2023-11-22T09:54:38;6.75;;;2.92;;
7398;SDS011;3740;50.700;7.184;2023-11-22T09:57:05;3.75;;;2.97;;
7398;SDS011;3740;50.700;7.184;2023-11-22T09:59:35;3.15;;;2.83;;
7398;SDS011;3740;50.700;7.184;2023-11-22T10:02:04;3.00;;;2.80;;
7398;SDS011;3740;50.700;7.184;2023-11-22T10:04:31;3.00;;;2.70;;
7398;SDS011;3740;50.700;7.184;2023-11-22T10:06:57;4.05;;;3.38;;
7398;SDS011;3740;50.700;7.184;2023-11-22T10:09:24;3.10;;;2.90;;
7398;SDS011;3740;50.700;7.184;2023-11-22T10:11:50;3.00;;;2.80;;
7398;SDS011;3740;50.700;7.184;2023-11-22T10:14:22;3.13;;;2.83;;
7398;SDS011;3740;50.700;7.184;2023-11-22T10:16:59;4.00;;;3.70;;
7398;SDS011;3740;50.700;7.184;2023-11-22T10:19:26;3.97;;;3.60;;
7398;SDS011;3740;50.700;7.184;2023-11-22T10:22:07;3.00;;;2.80;;
7398;SDS011;3740;50.700;7.184;2023-11-22T10:24:34;3.88;;;3.45;;
7398;SDS011;3740;50.700;7.184;2023-11-22T10:27:00;3.72;;;3.35;;
7398;SDS011;3740;50.700;7.184;2023-11-22T10:29:26;4.00;;;3.20;;
7398;SDS011;3740;50.700;7.184;2023-11-22T10:31:52;3.70;;;3.40;;
7398;SDS011;3740;50.700;7.184;2023-11-22T10:34:21;6.80;;;4.70;;
7398;SDS011;3740;50.700;7.184;2023-11-22T10:36:48;3.38;;;3.08;;
7398;SDS011;3740;50.700;7.184;2023-11-22T10:39:18;3.33;;;2.97;;
7398;SDS011;3740;50.700;7.184;2023-11-22T10:41:45;2.90;;;2.70;;
7398;SDS011;3740;50.700;7.184;2023-11-22T10:44:11;3.50;;;3.13;;
7398;SDS011;3740;50.700;7.184;2023-11-22T10:46:36;2.50;;;2.35;;
7398;SDS011;3740;50.700;7.184;2023-11-22T10:49:04;3.47;;;2.90;;
7398;SDS011;3740;50.700;7.184;2023-11-22T10:51:31;2.97;;;2.40;;
7398;SDS011;3740;50.700;7.184;2023-11-22T10:53:58;6.60;;;3.20;;
7398;SDS011;3740;50.700;7.184;2023-11-22T10:56:26;5.03;;;2.75;;
7398;SDS011;3740;50.700;7.184;2023-11-22T10:58:56;3.63;;;2.78;;
7398;SDS011;3740;50.700;7.184;2023-11-22T11:01:25;4.40;;;2.55;;
7398;SDS011;3740;50.700;7.184;2023-11-22T11:04:01;3.13;;;2.63;;
7398;SDS011;3740;50.700;7.184;2023-11-22T11:06:32;4.57;;;3.00;;
7398;SDS011;3740;50.700;7.184;2023-11-22T11:09:01;3.63;;;3.00;;
7398;SDS011;3740;50.700;7.184;2023-11-22T11:11:31;3.72;;;3.08;;
7398;SDS011;3740;50.700;7.184;2023-11-22T11:14:00;4.55;;;2.70;;
7398;SDS011;3740;50.700;7.184;2023-11-22T11:16:27;2.72;;;2.42;;
7398;SDS011;3740;50.700;7.184;2023-11-22T11:18:56;2.42;;;2.22;;
7398;SDS011;3740;50.700;7.184;2023-11-22T11:21:22;2.40;;;2.20;;
7398;SDS011;3740;50.700;7.184;2023-11-22T11:23:50;14.98;;;4.63;;
7398;SDS011;3740;50.700;7.184;2023-11-22T11:26:18;3.40;;;2.70;;
7398;SDS011;3740;50.700;7.184;2023-11-22T11:28:47;2.37;;;2.00;;
7398;SDS011;3740;50.700;7.184;2023-11-22T11:31:14;3.27;;;2.30;;
7398;SDS011;3740;50.700;7.184;2023-11-22T11:36:23;3.07;;;2.77;;
7398;SDS011;3740;50.700;7.184;2023-11-22T11:38:50;3.57;;;2.37;;
7398;SDS011;3740;50.700;7.184;2023-11-22T11:41:16;7.37;;;3.10;;
7398;SDS011;3740;50.700;7.184;2023-11-22T11:43:42;4.50;;;2.63;;
7398;SDS011;3740;50.700;7.184;2023-11-22T11:46:10;2.67;;;2.47;;
7398;SDS011;3740;50.700;7.184;2023-11-22T11:48:36;3.50;;;2.20;;
7398;SDS011;3740;50.700;7.184;2023-11-22T11:51:02;2.10;;;1.90;;
7398;SDS011;3740;50.700;7.184;2023-11-22T11:53:28;4.27;;;2.50;;
7398;SDS011;3740;50.700;7.184;2023-11-22T11:55:56;2.40;;;2.17;;
7398;SDS011;3740;50.700;7.184;2023-11-22T11:58:23;2.53;;;2.33;;
7398;SDS011;3740;50.700;7.184;2023-11-22T12:00:50;2.27;;;2.07;;
7398;SDS011;3740;50.700;7.184;2023-11-22T12:03:17;2.73;;;2.50;;
7398;SDS011;3740;50.700;7.184;2023-11-22T12:05:46;2.43;;;2.17;;
7398;SDS011;3740;50.700;7.184;2023-11-22T12:08:12;2.90;;;2.60;;
7398;SDS011;3740;50.700;7.184;2023-11-22T12:10:42;2.57;;;2.23;;
7398;SDS011;3740;50.700;7.184;2023-11-22T12:13:08;3.93;;;2.30;;
7398;SDS011;3740;50.700;7.184;2023-11-22T12:15:33;2.30;;;1.90;;
7398;SDS011;3740;50.700;7.184;2023-11-22T12:18:00;3.07;;;1.90;;
7398;SDS011;3740;50.700;7.184;2023-11-22T12:20:26;2.43;;;2.23;;
7398;SDS011;3740;50.700;7.184;2023-11-22T12:22:57;2.37;;;1.93;;
7398;SDS011;3740;50.700;7.184;2023-11-22T12:25:26;2.53;;;2.07;;
7398;SDS011;3740;50.700;7.184;2023-11-22T12:27:53;4.10;;;1.73;;
7398;SDS011;3740;50.700;7.184;2023-11-22T12:30:29;2.97;;;1.73;;
7398;SDS011;3740;50.700;7.184;2023-11-22T12:32:57;4.27;;;2.30;;
7398;SDS011;3740;50.700;7.184;2023-11-22T12:35:27;2.97;;;2.20;;
7398;SDS011;3740;50.700;7.184;2023-11-22T12:37:53;6.60;;;2.60;;
7398;SDS011;3740;50.700;7.184;2023-11-22T12:40:19;6.00;;;3.10;;
7398;SDS011;3740;50.700;7.184;2023-11-22T12:42:49;7.53;;;2.87;;
7398;SDS011;3740;50.700;7.184;2023-11-22T12:45:19;2.37;;;2.17;;
7398;SDS011;3740;50.700;7.184;2023-11-22T12:47:46;2.03;;;1.80;;
7398;SDS011;3740;50.700;7.184;2023-11-22T12:50:28;4.43;;;2.10;;
7398;SDS011;3740;50.700;7.184;2023-11-22T12:53:12;2.10;;;1.90;;
7398;SDS011;3740;50.700;7.184;2023-11-22T12:55:46;2.17;;;1.97;;
7398;SDS011;3740;50.700;7.184;2023-11-22T12:58:14;2.00;;;1.90;;
7398;SDS011;3740;50.700;7.184;2023-11-22T13:00:44;3.53;;;2.00;;
7398;SDS011;3740;50.700;7.184;2023-11-22T13:03:10;1.87;;;1.77;;
7398;SDS011;3740;50.700;7.184;2023-11-22T13:05:37;6.47;;;2.80;;
7398;SDS011;3740;50.700;7.184;2023-11-22T13:08:10;2.07;;;1.87;;
7398;SDS011;3740;50.700;7.184;2023-11-22T13:10:39;2.23;;;1.80;;
7398;SDS011;3740;50.700;7.184;2023-11-22T13:13:07;6.30;;;2.47;;
7398;SDS011;3740;50.700;7.184;2023-11-22T13:15:34;1.90;;;1.70;;
7398;SDS011;3740;50.700;7.184;2023-11-22T13:17:59;3.03;;;1.53;;
7398;SDS011;3740;50.700;7.184;2023-11-22T13:20:25;2.93;;;1.70;;
7398;SDS011;3740;50.700;7.184;2023-11-22T13:22:52;4.33;;;2.27;;
7398;SDS011;3740;50.700;7.184;2023-11-22T13:25:18;3.37;;;2.30;;
7398;SDS011;3740;50.700;7.184;2023-11-22T13:27:45;3.17;;;1.87;;
7398;SDS011;3740;50.700;7.184;2023-11-22T13:30:12;2.15;;;1.60;;
7398;SDS011;3740;50.700;7.184;2023-11-22T13:32:39;3.23;;;1.93;;
7398;SDS011;3740;50.700;7.184;2023-11-22T13:35:07;1.93;;;1.77;;
7398;SDS011;3740;50.700;7.184;2023-11-22T13:37:39;1.80;;;1.70;;
7398;SDS011;3740;50.700;7.184;2023-11-22T13:40:15;4.53;;;3.83;;
7398;SDS011;3740;50.700;7.184;2023-11-22T13:42:43;2.90;;;2.50;;
7398;SDS011;3740;50.700;7.184;2023-11-22T13:45:13;1.87;;;1.77;;
7398;SDS011;3740;50.700;7.184;2023-11-22T13:47:52;2.17;;;1.70;;
7398;SDS011;3740;50.700;7.184;2023-11-22T13:50:22;3.23;;;2.93;;
7398;SDS011;3740;50.700;7.184;2023-11-22T13:52:48;3.00;;;2.00;;
7398;SDS011;3740;50.700;7.184;2023-11-22T13:55:15;1.40;;;1.30;;
7398;SDS011;3740;50.700;7.184;2023-11-22T13:57:42;3.40;;;2.60;;
7398;SDS011;3740;50.700;7.184;2023-11-22T14:00:08;14.73;;;2.97;;
7398;SDS011;3740;50.700;7.184;2023-11-22T14:02:43;3.90;;;1.87;;
7398;SDS011;3740;50.700;7.184;2023-11-22T14:05:12;3.60;;;2.40;;
7398;SDS011;3740;50.700;7.184;2023-11-22T14:07:38;3.97;;;2.63;;
7398;SDS011;3740;50.700;7.184;2023-11-22T14:10:03;2.00;;;1.80;;
7398;SDS011;3740;50.700;7.184;2023-11-22T14:12:31;6.83;;;2.80;;
7398;SDS011;3740;50.700;7.184;2023-11-22T14:14:57;2.23;;;2.03;;
7398;SDS011;3740;50.700;7.184;2023-11-22T14:17:23;3.83;;;1.93;;
7398;SDS011;3740;50.700;7.184;2023-11-22T14:19:49;2.00;;;1.90;;
7398;SDS011;3740;50.700;7.184;2023-11-22T14:22:15;3.17;;;2.30;;
7398;SDS011;3740;50.700;7.184;2023-11-22T14:24:42;2.90;;;2.20;;
7398;SDS011;3740;50.700;7.184;2023-11-22T14:27:10;3.10;;;2.30;;
7398;SDS011;3740;50.700;7.184;2023-11-22T14:29:36;4.27;;;2.70;;
7398;SDS011;3740;50.700;7.184;2023-11-22T14:32:02;2.83;;;2.20;;
7398;SDS011;3740;50.700;7.184;2023-11-22T14:34:27;13.37;;;3.30;;
7398;SDS011;3740;50.700;7.184;2023-11-22T14:36:53;2.87;;;2.50;;
7398;SDS011;3740;50.700;7.184;2023-11-22T14:39:19;2.50;;;2.20;;
7398;SDS011;3740;50.700;7.184;2023-11-22T14:41:45;3.73;;;2.23;;
7398;SDS011;3740;50.700;7.184;2023-11-22T14:44:11;2.40;;;2.20;;
7398;SDS011;3740;50.700;7.184;2023-11-22T14:46:37;4.87;;;2.60;;
7398;SDS011;3740;50.700;7.184;2023-11-22T14:49:03;2.30;;;2.10;;
7398;SDS011;3740;50.700;7.184;2023-11-22T14:51:29;4.37;;;2.70;;
7398;SDS011;3740;50.700;7.184;2023-11-22T14:53:55;10.47;;;3.17;;
7398;SDS011;3740;50.700;7.184;2023-11-22T14:56:20;3.93;;;2.47;;
7398;SDS011;3740;50.700;7.184;2023-11-22T14:58:47;3.63;;;2.60;;
7398;SDS011;3740;50.700;7.184;2023-11-22T15:01:19;5.87;;;2.87;;
7398;SDS011;3740;50.700;7.184;2023-11-22T15:03:45;5.37;;;2.90;;
7398;SDS011;3740;50.700;7.184;2023-11-22T15:06:12;6.53;;;2.70;;
7398;SDS011;3740;50.700;7.184;2023-11-22T15:08:38;3.23;;;2.40;;
7398;SDS011;3740;50.700;7.184;2023-11-22T15:11:04;4.50;;;2.50;;
7398;SDS011;3740;50.700;7.184;2023-11-22T15:13:30;2.90;;;2.43;;
7398;SDS011;3740;50.700;7.184;2023-11-22T15:15:56;2.80;;;2.43;;
7398;SDS011;3740;50.700;7.184;2023-11-22T15:18:21;4.03;;;2.30;;